Time;durP1;ratioP1;P1;durP2;ratioP2;P2;SDS_P1;SDS_P2;PMS_P1;PMS_P2;Temp;Humidity;BMP_temperature;BMP_pressure;BME280_temperature;BME280_humidity;BME280_pressure;Samples;Min_cycle;Max_cycle;Signal;HPM_P1;HPM_P2
2023/05/22 00:01:11;;;;;;;;;;;18.50;67.50;;;;;;5038219;28;1340;-71
2023/05/22 00:03:36;;;;;;;;;;;18.50;67.60;;;;;;5020435;28;832;-71
2023/05/22 00:06:02;;;;;;;;;;;18.60;67.60;;;;;;5040319;28;1902;-70
2023/05/22 00:08:27;;;;;;;;;;;18.50;67.50;;;;;;5039027;28;962;-70
2023/05/22 00:10:53;;;;;;;;;;;18.50;67.50;;;;;;5036603;28;1540;-71
2023/05/22 00:13:19;;;;;;;;;;;18.60;67.60;;;;;;5038526;28;988;-70
2023/05/22 00:15:44;;;;;;;;;;;18.50;67.60;;;;;;5037989;28;898;-70
2023/05/22 00:18:12;;;;;;;;;;;18.60;67.60;;;;;;5040112;28;850;-71
2023/05/22 00:20:39;;;;;;;;;;;18.50;67.60;;;;;;5037031;28;1263;-71
2023/05/22 00:23:08;;;;;;;;;;;18.50;67.50;;;;;;5023554;28;903;-70
2023/05/22 00:25:34;;;;;;;;;;;18.50;67.80;;;;;;5041208;28;1894;-71
2023/05/22 00:27:59;;;;;;;;;;;18.50;67.50;;;;;;5043210;28;876;-71
2023/05/22 00:30:25;;;;;;;;;;;18.50;67.50;;;;;;5039953;28;890;-70
2023/05/22 00:32:50;;;;;;;;;;;18.50;67.60;;;;;;5039460;28;1422;-71
2023/05/22 00:35:16;;;;;;;;;;;18.50;67.50;;;;;;5042000;28;1354;-70
2023/05/22 00:37:43;;;;;;;;;;;18.50;67.50;;;;;;5027442;28;1034;-70
2023/05/22 00:40:09;;;;;;;;;;;18.50;67.50;;;;;;5037428;28;923;-71
2023/05/22 00:42:34;;;;;;;;;;;18.50;67.60;;;;;;5039055;28;1262;-70
2023/05/22 00:45:00;;;;;;;;;;;18.50;68.30;;;;;;5022630;28;1973;-71
2023/05/22 00:47:25;;;;;;;;;;;18.50;67.50;;;;;;5038539;28;836;-71
2023/05/22 00:49:51;;;;;;;;;;;18.50;67.50;;;;;;5043069;28;844;-71
2023/05/22 00:52:17;;;;;;;;;;;18.50;67.60;;;;;;5043813;28;1672;-70
2023/05/22 00:54:42;;;;;;;;;;;18.50;67.50;;;;;;5022892;28;857;-70
2023/05/22 00:57:10;;;;;;;;;;;18.50;67.50;;;;;;5040596;28;1074;-70
2023/05/22 00:59:36;;;;;;;;;;;18.50;67.50;;;;;;5043823;28;861;-70
2023/05/22 01:02:01;;;;;;;;;;;18.50;67.50;;;;;;5043078;28;1265;-71
2023/05/22 01:04:27;;;;;;;;;;;18.50;67.50;;;;;;5043080;28;1946;-70
2023/05/22 01:06:53;;;;;;;;;;;18.50;67.50;;;;;;5026858;28;832;-70
2023/05/22 01:09:19;;;;;;;;;;;18.50;67.50;;;;;;5041890;28;919;-70
2023/05/22 01:11:51;;;;;;;;;;;18.50;67.50;;;;;;5026500;28;1274;-71
2023/05/22 01:14:22;;;;;;;;;;;18.50;67.50;;;;;;5038802;28;855;-70
2023/05/22 01:16:58;;;;;;;;;;;18.50;67.50;;;;;;5042015;28;872;-71
2023/05/22 01:19:46;;;;;;;;;;;18.50;67.50;;;;;;5029712;28;872;-71
2023/05/22 01:22:20;;;;;;;;;;;18.50;67.50;;;;;;5041817;28;1338;-70
2023/05/22 01:24:56;;;;;;;;;;;18.50;67.50;;;;;;5026451;28;1958;-71
2023/05/22 01:27:27;;;;;;;;;;;18.50;67.60;;;;;;5031642;28;796;-71
2023/05/22 01:30:02;;;;;;;;;;;18.50;67.50;;;;;;5028977;28;915;-71
2023/05/22 01:32:28;;;;;;;;;;;18.50;67.60;;;;;;5041999;28;1287;-71
2023/05/22 01:34:55;;;;;;;;;;;18.50;67.60;;;;;;5039957;28;1471;-71
2023/05/22 01:37:21;;;;;;;;;;;18.50;67.60;;;;;;5025845;28;824;-71
2023/05/22 01:39:46;;;;;;;;;;;18.50;67.60;;;;;;5041091;28;863;-71
2023/05/22 01:42:12;;;;;;;;;;;18.50;67.60;;;;;;5016588;28;1312;-71
2023/05/22 01:44:37;;;;;;;;;;;18.50;67.60;;;;;;5040458;28;1968;-71
2023/05/22 01:47:04;;;;;;;;;;;18.50;67.60;;;;;;5043604;28;954;-71
2023/05/22 01:49:33;;;;;;;;;;;18.50;67.50;;;;;;5028180;28;895;-71
2023/05/22 01:52:18;;;;;;;;;;;18.50;67.50;;;;;;5027121;28;1288;-71
2023/05/22 01:55:12;;;;;;;;;;;18.50;67.50;;;;;;5042182;28;895;-71
2023/05/22 01:57:37;;;;;;;;;;;18.50;67.50;;;;;;5003444;28;1234;-70
2023/05/22 02:00:08;;;;;;;;;;;18.50;67.60;;;;;;5041131;28;895;-71
2023/05/22 02:02:37;;;;;;;;;;;18.50;67.50;;;;;;5024439;28;1283;-71
2023/05/22 02:05:03;;;;;;;;;;;18.50;67.60;;;;;;5027998;28;1906;-70
2023/05/22 02:07:28;;;;;;;;;;;18.50;67.50;;;;;;5041466;28;887;-70
2023/05/22 02:09:54;;;;;;;;;;;18.50;67.50;;;;;;5010933;28;899;-71
2023/05/22 02:12:20;;;;;;;;;;;18.50;67.50;;;;;;5024190;28;1338;-70
2023/05/22 02:14:45;;;;;;;;;;;18.50;67.60;;;;;;5022859;28;967;-71
2023/05/22 02:17:11;;;;;;;;;;;18.50;67.50;;;;;;5033261;28;817;-70
2023/05/22 02:19:37;;;;;;;;;;;18.50;67.50;;;;;;5042347;28;789;-70
2023/05/22 02:22:02;;;;;;;;;;;18.50;67.60;;;;;;5038837;28;1275;-70
2023/05/22 02:24:31;;;;;;;;;;;18.50;67.60;;;;;;5043228;28;1961;-70
2023/05/22 02:26:57;;;;;;;;;;;18.50;67.50;;;;;;5041340;28;820;-71
2023/05/22 02:29:22;;;;;;;;;;;18.50;67.50;;;;;;5041323;28;836;-70
2023/05/22 02:31:48;;;;;;;;;;;18.50;67.60;;;;;;5038731;28;1212;-71
2023/05/22 02:34:13;;;;;;;;;;;18.50;67.60;;;;;;5041667;28;1205;-70
2023/05/22 02:36:39;;;;;;;;;;;18.50;67.50;;;;;;5042454;28;840;-70
2023/05/22 02:39:05;;;;;;;;;;;18.50;67.60;;;;;;5022096;28;893;-71
2023/05/22 02:41:30;;;;;;;;;;;18.50;67.60;;;;;;5041597;28;1274;-71
2023/05/22 02:43:56;;;;;;;;;;;18.50;67.60;;;;;;5042979;28;857;-71
2023/05/22 02:46:21;;;;;;;;;;;18.50;67.60;;;;;;5039091;28;1906;-70
2023/05/22 02:48:47;;;;;;;;;;;18.50;67.60;;;;;;5041525;28;852;-71
2023/05/22 02:51:12;;;;;;;;;;;18.50;67.60;;;;;;5040832;28;1200;-71
2023/05/22 02:53:39;;;;;;;;;;;18.50;67.60;;;;;;5038916;28;881;-71
2023/05/22 02:56:06;;;;;;;;;;;18.50;67.60;;;;;;5031823;28;911;-71
2023/05/22 02:58:32;;;;;;;;;;;18.50;67.60;;;;;;5039795;28;899;-71
2023/05/22 03:00:58;;;;;;;;;;;18.50;67.60;;;;;;5024735;28;1278;-71
2023/05/22 03:03:24;;;;;;;;;;;18.50;67.60;;;;;;5038568;28;826;-71
2023/05/22 03:05:52;;;;;;;;;;;18.50;67.60;;;;;;5037327;28;1971;-71
2023/05/22 03:08:18;;;;;;;;;;;18.50;67.60;;;;;;5041401;28;871;-71
2023/05/22 03:10:43;;;;;;;;;;;18.50;67.60;;;;;;5037565;28;1369;-71
2023/05/22 03:13:09;;;;;;;;;;;18.50;67.60;;;;;;5040230;28;946;-70
2023/05/22 03:15:34;;;;;;;;;;;18.50;67.60;;;;;;5043286;28;1049;-70
2023/05/22 03:18:01;;;;;;;;;;;18.50;67.60;;;;;;5041514;28;1254;-71
2023/05/22 03:20:26;;;;;;;;;;;18.50;67.60;;;;;;5039964;28;839;-71
2023/05/22 03:22:51;;;;;;;;;;;18.50;67.60;;;;;;5039751;28;1237;-71
2023/05/22 03:25:19;;;;;;;;;;;18.50;67.60;;;;;;5039156;28;1966;-71
2023/05/22 03:27:47;;;;;;;;;;;18.50;67.60;;;;;;5037303;28;859;-71
2023/05/22 03:30:12;;;;;;;;;;;18.50;67.60;;;;;;5040037;28;758;-71
2023/05/22 03:32:38;;;;;;;;;;;18.50;67.60;;;;;;5042472;28;1256;-71
2023/05/22 03:35:04;;;;;;;;;;;18.50;67.60;;;;;;5039160;28;1410;-70
2023/05/22 03:37:29;;;;;;;;;;;18.50;67.60;;;;;;5037020;28;901;-70
2023/05/22 03:39:55;;;;;;;;;;;18.50;67.60;;;;;;5038124;28;865;-71
2023/05/22 03:42:20;;;;;;;;;;;18.50;68.30;;;;;;5040540;28;1261;-70
2023/05/22 03:44:46;;;;;;;;;;;18.50;67.60;;;;;;5027827;28;1898;-70
2023/05/22 03:47:11;;;;;;;;;;;18.50;67.60;;;;;;5040275;28;923;-70
2023/05/22 03:49:36;;;;;;;;;;;18.50;67.60;;;;;;5039866;28;865;-70
2023/05/22 03:52:02;;;;;;;;;;;18.50;67.60;;;;;;5036387;28;1329;-71
2023/05/22 03:54:27;;;;;;;;;;;18.50;67.60;;;;;;5026263;28;971;-71
2023/05/22 03:56:53;;;;;;;;;;;18.50;67.60;;;;;;5040398;28;832;-71
2023/05/22 03:59:18;;;;;;;;;;;18.50;67.60;;;;;;5023912;28;898;-71
2023/05/22 04:01:45;;;;;;;;;;;18.50;67.60;;;;;;5037903;28;1267;-71
2023/05/22 04:04:11;;;;;;;;;;;18.50;67.60;;;;;;5039712;28;1907;-70
2023/05/22 04:06:41;;;;;;;;;;;18.50;67.60;;;;;;5040313;28;836;-70
2023/05/22 04:09:10;;;;;;;;;;;18.50;67.60;;;;;;5022872;28;902;-70
2023/05/22 04:11:38;;;;;;;;;;;18.50;67.60;;;;;;5036730;28;1292;-70
2023/05/22 04:14:04;;;;;;;;;;;18.50;67.70;;;;;;5026312;28;880;-71
2023/05/22 04:16:29;;;;;;;;;;;18.50;67.60;;;;;;5021584;28;817;-71
2023/05/22 04:18:55;;;;;;;;;;;18.50;67.60;;;;;;5038043;28;1026;-71
2023/05/22 04:21:22;;;;;;;;;;;18.50;67.60;;;;;;5038119;28;1272;-71
2023/05/22 04:23:48;;;;;;;;;;;18.50;67.60;;;;;;5039156;28;1285;-71
2023/05/22 04:26:14;;;;;;;;;;;18.50;67.60;;;;;;5038853;28;1961;-71
2023/05/22 04:28:44;;;;;;;;;;;18.50;67.60;;;;;;5036894;28;893;-71
2023/05/22 04:31:13;;;;;;;;;;;18.50;67.60;;;;;;5038471;28;1332;-71
2023/05/22 04:33:38;;;;;;;;;;;18.50;67.60;;;;;;5039253;28;1220;-71
2023/05/22 04:36:04;;;;;;;;;;;18.50;67.60;;;;;;5038589;28;804;-71
2023/05/22 04:38:30;;;;;;;;;;;18.50;67.60;;;;;;5039041;28;1011;-71
2023/05/22 04:40:55;;;;;;;;;;;18.50;67.60;;;;;;5037850;28;1354;-71
2023/05/22 04:43:25;;;;;;;;;;;18.50;67.60;;;;;;5038631;28;788;-70
2023/05/22 04:45:50;;;;;;;;;;;18.50;67.60;;;;;;5035174;28;1983;-71
2023/05/22 04:48:16;;;;;;;;;;;18.50;67.60;;;;;;5036695;28;872;-71
2023/05/22 04:50:45;;;;;;;;;;;18.50;67.60;;;;;;5038514;28;1404;-71
2023/05/22 04:53:11;;;;;;;;;;;18.50;67.60;;;;;;5038822;28;928;-71
2023/05/22 04:55:36;;;;;;;;;;;18.50;67.60;;;;;;5023474;28;888;-71
2023/05/22 04:58:02;;;;;;;;;;;18.50;67.60;;;;;;5039869;28;1704;-71
2023/05/22 05:00:28;;;;;;;;;;;18.50;67.60;;;;;;5023536;28;879;-71
2023/05/22 05:02:53;;;;;;;;;;;18.50;67.60;;;;;;5038121;28;1283;-71
2023/05/22 05:05:19;;;;;;;;;;;18.50;67.70;;;;;;5039015;28;1910;-71
2023/05/22 05:07:46;;;;;;;;;;;18.50;67.60;;;;;;5039042;28;788;-71
2023/05/22 05:10:11;;;;;;;;;;;18.50;68.00;;;;;;5024123;28;970;-70
2023/05/22 05:12:36;;;;;;;;;;;18.50;67.60;;;;;;5041395;28;1274;-70
2023/05/22 05:15:02;;;;;;;;;;;18.50;67.60;;;;;;5036744;28;868;-71
2023/05/22 05:17:29;;;;;;;;;;;18.50;67.60;;;;;;5037331;28;1324;-71
2023/05/22 05:19:55;;;;;;;;;;;18.50;67.60;;;;;;5037309;28;876;-71
2023/05/22 05:22:20;;;;;;;;;;;18.50;67.60;;;;;;5037811;28;1318;-71
2023/05/22 05:24:46;;;;;;;;;;;18.50;67.60;;;;;;5037355;28;1902;-70
2023/05/22 05:27:11;;;;;;;;;;;18.50;67.60;;;;;;5038681;28;856;-70
2023/05/22 05:29:37;;;;;;;;;;;18.50;67.60;;;;;;5020227;28;839;-70
2023/05/22 05:32:02;;;;;;;;;;;18.50;67.60;;;;;;5039343;28;1233;-71
2023/05/22 05:34:28;;;;;;;;;;;18.50;67.70;;;;;;5039232;28;1280;-70
2023/05/22 05:36:56;;;;;;;;;;;18.50;67.60;;;;;;5043465;28;820;-71
2023/05/22 05:39:21;;;;;;;;;;;18.50;67.60;;;;;;5026144;28;899;-71
2023/05/22 05:41:47;;;;;;;;;;;18.50;67.60;;;;;;5025172;28;1251;-71
2023/05/22 05:44:12;;;;;;;;;;;18.50;67.60;;;;;;5040817;28;1901;-71
2023/05/22 05:46:37;;;;;;;;;;;18.50;67.60;;;;;;5039945;28;1749;-70
2023/05/22 05:49:08;;;;;;;;;;;18.50;67.60;;;;;;5026997;28;903;-70
2023/05/22 05:51:34;;;;;;;;;;;18.50;67.60;;;;;;5043502;28;1223;-70
2023/05/22 05:54:00;;;;;;;;;;;18.50;67.70;;;;;;5041757;28;832;-71
2023/05/22 05:56:25;;;;;;;;;;;18.50;67.70;;;;;;5043128;28;997;-71
2023/05/22 05:58:51;;;;;;;;;;;18.50;67.60;;;;;;5032408;28;896;-71
2023/05/22 06:01:17;;;;;;;;;;;18.50;67.70;;;;;;5041296;28;1379;-71
2023/05/22 06:03:43;;;;;;;;;;;18.50;67.60;;;;;;5039821;28;830;-70
2023/05/22 06:06:09;;;;;;;;;;;18.50;67.60;;;;;;5041229;28;1964;-70
2023/05/22 06:08:35;;;;;;;;;;;18.50;67.50;;;;;;5026730;28;920;-71
2023/05/22 06:11:00;;;;;;;;;;;18.50;67.60;;;;;;5040916;28;1268;-69
2023/05/22 06:13:26;;;;;;;;;;;18.50;67.60;;;;;;5040674;28;1728;-68
2023/05/22 06:15:51;;;;;;;;;;;18.50;67.40;;;;;;5040488;28;2095;-68
2023/05/22 06:18:17;;;;;;;;;;;18.50;67.20;;;;;;5041709;28;1434;-70
2023/05/22 06:20:42;;;;;;;;;;;18.50;67.20;;;;;;5040771;28;1587;-70
2023/05/22 06:23:08;;;;;;;;;;;18.50;67.20;;;;;;5040979;28;899;-69
2023/05/22 06:25:33;;;;;;;;;;;18.60;67.10;;;;;;5043605;28;1886;-68
2023/05/22 06:27:59;;;;;;;;;;;18.60;67.10;;;;;;5040881;28;874;-68
2023/05/22 06:30:25;;;;;;;;;;;18.50;67.00;;;;;;5040690;28;842;-68
2023/05/22 06:32:51;;;;;;;;;;;18.50;67.00;;;;;;5039761;28;1377;-68
2023/05/22 06:35:21;;;;;;;;;;;18.60;67.20;;;;;;5027537;28;1363;-68
2023/05/22 06:37:47;;;;;;;;;;;18.60;66.90;;;;;;5038077;28;911;-68
2023/05/22 06:40:13;;;;;;;;;;;18.60;66.80;;;;;;5039263;28;2078;-68
2023/05/22 06:42:38;;;;;;;;;;;18.60;66.70;;;;;;5040701;28;1429;-70
2023/05/22 06:45:04;;;;;;;;;;;18.60;66.60;;;;;;5038482;28;1973;-69
2023/05/22 06:47:30;;;;;;;;;;;18.60;66.60;;;;;;5041125;28;1026;-69
2023/05/22 06:49:55;;;;;;;;;;;18.60;66.60;;;;;;5041327;28;2009;-69
2023/05/22 06:52:20;;;;;;;;;;;18.60;66.60;;;;;;5042038;28;1305;-70
2023/05/22 06:54:46;;;;;;;;;;;18.50;66.50;;;;;;5037705;28;1371;-69
2023/05/22 06:57:11;;;;;;;;;;;18.60;66.60;;;;;;5041218;28;1010;-69
2023/05/22 06:59:37;;;;;;;;;;;18.60;66.50;;;;;;5040216;28;882;-69
2023/05/22 07:02:02;;;;;;;;;;;18.60;66.50;;;;;;5041016;28;1351;-70
2023/05/22 07:04:28;;;;;;;;;;;18.60;65.90;;;;;;5039952;28;1987;-69
2023/05/22 07:06:53;;;;;;;;;;;18.60;66.00;;;;;;5040951;28;1513;-69
2023/05/22 07:09:19;;;;;;;;;;;18.60;66.50;;;;;;5034896;28;1548;-70
2023/05/22 07:11:44;;;;;;;;;;;18.60;66.70;;;;;;5035018;28;1415;-70
2023/05/22 07:14:11;;;;;;;;;;;18.70;67.10;;;;;;5023896;28;1349;-70
2023/05/22 07:16:37;;;;;;;;;;;18.70;67.30;;;;;;5041259;28;1240;-70
2023/05/22 07:19:02;;;;;;;;;;;18.70;67.50;;;;;;5022591;28;1034;-69
2023/05/22 07:21:30;;;;;;;;;;;18.80;67.50;;;;;;5039054;28;1275;-70
2023/05/22 07:23:56;;;;;;;;;;;18.80;67.30;;;;;;5037749;28;908;-70
2023/05/22 07:26:21;;;;;;;;;;;18.80;67.30;;;;;;5022650;28;2173;-69
2023/05/22 07:28:47;;;;;;;;;;;18.80;67.40;;;;;;5040191;28;1363;-69
2023/05/22 07:31:12;;;;;;;;;;;18.80;67.50;;;;;;5043035;28;1361;-68
2023/05/22 07:33:38;;;;;;;;;;;18.90;67.80;;;;;;5038864;28;1485;-68
2023/05/22 07:36:03;;;;;;;;;;;18.80;67.90;;;;;;5040718;28;840;-68
2023/05/22 07:38:29;;;;;;;;;;;18.80;68.10;;;;;;5020610;28;852;-68
2023/05/22 07:40:54;;;;;;;;;;;18.80;68.40;;;;;;5020328;28;1204;-69
2023/05/22 07:43:20;;;;;;;;;;;18.90;69.00;;;;;;5039740;28;839;-68
2023/05/22 07:45:46;;;;;;;;;;;18.90;69.40;;;;;;5038743;28;1964;-69
2023/05/22 07:48:11;;;;;;;;;;;18.90;69.70;;;;;;5039876;28;837;-68
2023/05/22 07:50:37;;;;;;;;;;;18.90;69.80;;;;;;5040670;28;1330;-68
2023/05/22 07:53:03;;;;;;;;;;;18.90;70.00;;;;;;5037059;28;967;-68
2023/05/22 07:55:28;;;;;;;;;;;18.90;70.10;;;;;;5037312;28;840;-68
2023/05/22 07:57:55;;;;;;;;;;;18.90;70.60;;;;;;5037328;28;836;-68
2023/05/22 08:00:20;;;;;;;;;;;18.90;71.90;;;;;;5041244;28;810;-68
2023/05/22 08:02:46;;;;;;;;;;;18.90;72.00;;;;;;5036776;28;1234;-68
2023/05/22 08:05:11;;;;;;;;;;;19.00;72.00;;;;;;5039437;28;1906;-68
2023/05/22 08:07:37;;;;;;;;;;;19.00;71.90;;;;;;5040417;28;1375;-68
2023/05/22 08:10:03;;;;;;;;;;;19.00;71.70;;;;;;5038952;28;879;-68
2023/05/22 08:12:29;;;;;;;;;;;19.00;71.20;;;;;;5036374;28;1267;-69
2023/05/22 08:14:54;;;;;;;;;;;19.00;71.40;;;;;;5039725;28;2147;-68
2023/05/22 08:17:20;;;;;;;;;;;19.00;72.20;;;;;;5022017;28;1387;-68
2023/05/22 08:19:45;;;;;;;;;;;19.00;71.50;;;;;;5031951;28;1483;-68
2023/05/22 08:22:10;;;;;;;;;;;19.00;71.40;;;;;;5038672;28;1260;-68
2023/05/22 08:24:36;;;;;;;;;;;19.10;71.20;;;;;;5037582;28;1898;-68
2023/05/22 08:27:01;;;;;;;;;;;19.10;71.20;;;;;;5038615;28;1027;-68
2023/05/22 08:29:27;;;;;;;;;;;19.10;71.10;;;;;;5034829;28;821;-68
2023/05/22 08:31:55;;;;;;;;;;;19.10;71.00;;;;;;5024088;28;1288;-68
2023/05/22 08:34:21;;;;;;;;;;;19.10;70.90;;;;;;5037988;28;1315;-68
2023/05/22 08:36:47;;;;;;;;;;;19.00;70.60;;;;;;5037638;28;1010;-68
2023/05/22 08:39:13;;;;;;;;;;;19.00;70.60;;;;;;5024771;28;842;-68
2023/05/22 08:41:38;;;;;;;;;;;19.00;70.60;;;;;;5030313;28;1384;-68
2023/05/22 08:44:04;;;;;;;;;;;19.00;70.60;;;;;;5022210;28;989;-68
2023/05/22 08:46:29;;;;;;;;;;;19.00;70.60;;;;;;5025215;28;1898;-68
2023/05/22 08:48:55;;;;;;;;;;;19.10;70.90;;;;;;5023486;28;891;-69
2023/05/22 08:51:21;;;;;;;;;;;19.00;70.90;;;;;;5023919;28;1400;-68
2023/05/22 08:53:46;;;;;;;;;;;19.00;71.00;;;;;;5021286;28;1624;-68
2023/05/22 08:56:12;;;;;;;;;;;19.10;71.70;;;;;;5038221;28;1265;-68
2023/05/22 08:58:37;;;;;;;;;;;19.10;72.80;;;;;;5037713;28;879;-68
2023/05/22 09:01:03;;;;;;;;;;;19.10;72.50;;;;;;5039725;28;1340;-68
2023/05/22 09:03:31;;;;;;;;;;;19.10;72.20;;;;;;5039947;28;884;-68
2023/05/22 09:05:58;;;;;;;;;;;19.10;72.10;;;;;;5039649;28;1976;-68
2023/05/22 09:08:23;;;;;;;;;;;19.10;72.00;;;;;;5038716;28;900;-68
2023/05/22 09:10:49;;;;;;;;;;;19.10;71.90;;;;;;5041337;28;1939;-68
2023/05/22 09:13:25;;;;;;;;;;;19.10;71.80;;;;;;5041249;28;1421;-68
2023/05/22 09:15:50;;;;;;;;;;;19.10;71.80;;;;;;5041246;28;1236;-68
2023/05/22 09:18:16;;;;;;;;;;;19.20;71.80;;;;;;5041012;28;861;-68
2023/05/22 09:20:41;;;;;;;;;;;19.10;71.70;;;;;;5045302;28;1266;-68
2023/05/22 09:23:14;;;;;;;;;;;19.20;71.80;;;;;;5040965;28;943;-68
2023/05/22 09:25:40;;;;;;;;;;;19.20;71.90;;;;;;5040320;28;2001;-68
2023/05/22 09:28:06;;;;;;;;;;;19.20;71.80;;;;;;5039700;28;1260;-68
2023/05/22 09:30:33;;;;;;;;;;;19.20;71.90;;;;;;5040031;28;851;-68
2023/05/22 09:32:58;;;;;;;;;;;19.20;71.90;;;;;;5042089;28;1330;-68
2023/05/22 09:35:26;;;;;;;;;;;19.20;72.00;;;;;;5032599;28;1446;-68
2023/05/22 09:37:52;;;;;;;;;;;19.20;72.40;;;;;;5037949;28;836;-68
2023/05/22 09:40:17;;;;;;;;;;;19.20;72.40;;;;;;5028029;28;1625;-68
2023/05/22 09:42:44;;;;;;;;;;;19.20;72.50;;;;;;5042081;28;1277;-68
2023/05/22 09:45:09;;;;;;;;;;;19.20;72.40;;;;;;5044934;28;1882;-68
2023/05/22 09:47:35;;;;;;;;;;;19.20;72.40;;;;;;5042259;28;920;-68
2023/05/22 09:50:05;;;;;;;;;;;19.10;72.80;;;;;;5038356;28;820;-68
2023/05/22 09:52:34;;;;;;;;;;;19.20;73.80;;;;;;5044343;28;2181;-70
2023/05/22 09:55:07;;;;;;;;;;;19.20;73.60;;;;;;5016922;28;4018;-69
2023/05/22 09:57:42;;;;;;;;;;;19.30;73.60;;;;;;5024413;28;1066;-69
2023/05/22 10:00:11;;;;;;;;;;;19.30;73.40;;;;;;5024989;28;971;-69
2023/05/22 10:02:37;;;;;;;;;;;19.40;73.20;;;;;;5041080;28;1292;-69
2023/05/22 10:05:08;;;;;;;;;;;19.40;73.10;;;;;;5027255;28;1993;-69
2023/05/22 10:07:40;;;;;;;;;;;19.40;72.90;;;;;;5024595;28;846;-69
2023/05/22 10:10:06;;;;;;;;;;;19.40;72.70;;;;;;5025750;28;971;-69
2023/05/22 10:12:32;;;;;;;;;;;19.40;72.60;;;;;;5025910;28;1272;-69
2023/05/22 10:14:57;;;;;;;;;;;19.40;72.30;;;;;;5025474;28;1051;-69
2023/05/22 10:17:23;;;;;;;;;;;19.40;71.90;;;;;;5039397;28;1018;-69
2023/05/22 10:19:48;;;;;;;;;;;19.40;71.70;;;;;;5039698;28;778;-69
2023/05/22 10:22:19;;;;;;;;;;;19.40;71.50;;;;;;5027072;28;1331;-69
2023/05/22 10:24:45;;;;;;;;;;;19.40;71.70;;;;;;5040795;28;1961;-69
2023/05/22 10:27:11;;;;;;;;;;;19.40;71.80;;;;;;5040257;28;863;-70
2023/05/22 10:29:37;;;;;;;;;;;19.30;71.80;;;;;;5039150;28;824;-69
2023/05/22 10:32:22;;;;;;;;;;;19.30;71.80;;;;;;5029426;28;1211;-70
2023/05/22 10:34:47;;;;;;;;;;;19.30;71.70;;;;;;5043500;28;1230;-69
2023/05/22 10:37:30;;;;;;;;;;;19.30;71.90;;;;;;5041281;28;871;-70
2023/05/22 10:40:00;;;;;;;;;;;19.20;72.00;;;;;;5039015;28;1038;-71
2023/05/22 10:42:30;;;;;;;;;;;19.20;71.80;;;;;;5025288;28;1567;-71
2023/05/22 10:44:55;;;;;;;;;;;19.20;71.70;;;;;;5026058;28;2187;-70
2023/05/22 10:47:21;;;;;;;;;;;19.20;72.40;;;;;;5024955;28;1695;-71
2023/05/22 10:49:48;;;;;;;;;;;19.20;71.80;;;;;;5024203;28;816;-71
2023/05/22 10:52:13;;;;;;;;;;;19.20;71.80;;;;;;5040626;28;1275;-71
2023/05/22 10:54:42;;;;;;;;;;;19.20;71.70;;;;;;5031977;28;1117;-70
2023/05/22 10:57:17;;;;;;;;;;;19.20;71.80;;;;;;5035770;28;872;-71
2023/05/22 10:59:43;;;;;;;;;;;19.20;71.80;;;;;;5040585;28;841;-70
2023/05/22 11:02:18;;;;;;;;;;;19.20;71.80;;;;;;5040866;28;1376;-70
2023/05/22 11:04:44;;;;;;;;;;;19.20;71.80;;;;;;5040865;28;1905;-70
2023/05/22 11:07:12;;;;;;;;;;;19.20;71.80;;;;;;5040690;28;905;-70
2023/05/22 11:09:46;;;;;;;;;;;19.20;71.80;;;;;;5022591;28;851;-69
2023/05/22 11:12:24;;;;;;;;;;;19.20;71.80;;;;;;5020894;28;1307;-69
2023/05/22 11:14:55;;;;;;;;;;;19.20;71.90;;;;;;5039176;28;829;-70
2023/05/22 11:17:32;;;;;;;;;;;19.20;71.90;;;;;;5036825;28;1240;-70
2023/05/22 11:20:01;;;;;;;;;;;19.10;71.90;;;;;;5020101;28;864;-70
2023/05/22 11:22:34;;;;;;;;;;;19.20;72.00;;;;;;5023174;28;1352;-69
2023/05/22 11:25:02;;;;;;;;;;;19.20;73.20;;;;;;5023849;28;1979;-69
2023/05/22 11:27:27;;;;;;;;;;;19.20;72.60;;;;;;5025178;28;864;-69
2023/05/22 11:29:53;;;;;;;;;;;19.20;72.50;;;;;;5024304;28;802;-69
2023/05/22 11:32:21;;;;;;;;;;;19.20;72.50;;;;;;5038266;28;1329;-69
2023/05/22 11:34:48;;;;;;;;;;;19.20;72.50;;;;;;5023341;28;1291;-69
2023/05/22 11:37:16;;;;;;;;;;;19.20;72.50;;;;;;5037468;28;841;-70
2023/05/22 11:39:41;;;;;;;;;;;19.20;72.40;;;;;;5017793;28;824;-70
2023/05/22 11:42:07;;;;;;;;;;;19.20;72.40;;;;;;5040054;28;1272;-70
2023/05/22 11:44:33;;;;;;;;;;;19.20;72.70;;;;;;5039369;28;1930;-70
2023/05/22 11:46:58;;;;;;;;;;;19.20;72.90;;;;;;5037408;28;892;-70
2023/05/22 11:49:24;;;;;;;;;;;19.20;72.90;;;;;;5036780;28;882;-70
2023/05/22 11:51:49;;;;;;;;;;;19.30;72.80;;;;;;5038211;28;1294;-70
2023/05/22 11:54:18;;;;;;;;;;;19.30;72.70;;;;;;5021620;28;827;-69
2023/05/22 11:56:44;;;;;;;;;;;19.30;73.10;;;;;;5038359;28;850;-69
2023/05/22 11:59:09;;;;;;;;;;;19.30;73.20;;;;;;5039931;28;883;-69
2023/05/22 12:01:35;;;;;;;;;;;19.30;73.10;;;;;;5039822;28;1339;-69
2023/05/22 12:04:01;;;;;;;;;;;19.40;73.20;;;;;;5037740;28;856;-69
2023/05/22 12:06:26;;;;;;;;;;;19.40;63.90;;;;;;5038975;28;1914;-69
2023/05/22 12:08:52;;;;;;;;;;;19.40;65.50;;;;;;5038312;28;855;-69
2023/05/22 12:11:17;;;;;;;;;;;19.40;58.80;;;;;;5039465;28;1268;-68
2023/05/22 12:13:44;;;;;;;;;;;19.50;56.90;;;;;;5038540;28;1369;-69
2023/05/22 12:16:16;;;;;;;;;;;19.50;58.60;;;;;;5041326;28;1416;-69
2023/05/22 12:18:41;;;;;;;;;;;19.60;58.00;;;;;;5029685;28;4072;-69
2023/05/22 12:21:07;;;;;;;;;;;19.60;56.90;;;;;;5026218;28;4891;-69
2023/05/22 12:23:33;;;;;;;;;;;19.70;54.70;;;;;;5033319;28;3848;-69
2023/05/22 12:25:59;;;;;;;;;;;19.80;54.90;;;;;;5022303;28;4564;-70
2023/05/22 12:28:25;;;;;;;;;;;19.80;55.40;;;;;;5037758;28;905;-69
2023/05/22 12:30:54;;;;;;;;;;;19.90;55.50;;;;;;5022480;28;1364;-70
2023/05/22 12:33:20;;;;;;;;;;;19.90;55.50;;;;;;5022798;28;1241;-69
2023/05/22 12:35:48;;;;;;;;;;;20.00;55.30;;;;;;5021532;28;1329;-69
2023/05/22 12:38:14;;;;;;;;;;;20.00;53.80;;;;;;5024152;28;867;-70
2023/05/22 12:40:39;;;;;;;;;;;20.00;53.30;;;;;;5039346;28;1322;-69
2023/05/22 12:43:05;;;;;;;;;;;20.00;52.40;;;;;;5037040;28;890;-70
2023/05/22 12:45:30;;;;;;;;;;;20.00;51.50;;;;;;5019141;28;1898;-69
2023/05/22 12:47:56;;;;;;;;;;;20.10;51.10;;;;;;5030954;28;4246;-68
2023/05/22 12:50:21;;;;;;;;;;;20.10;50.60;;;;;;5037084;28;2100;-69
2023/05/22 12:52:47;;;;;;;;;;;20.10;53.50;;;;;;5035380;28;1371;-69
2023/05/22 12:55:12;;;;;;;;;;;20.10;53.80;;;;;;5015668;28;4222;-68
2023/05/22 12:57:38;;;;;;;;;;;20.20;52.20;;;;;;5023258;28;4490;-68
2023/05/22 13:00:04;;;;;;;;;;;20.20;51.90;;;;;;5022495;28;4627;-69
2023/05/22 13:02:30;;;;;;;;;;;20.20;51.80;;;;;;5013629;28;4559;-69
2023/05/22 13:04:55;;;;;;;;;;;20.20;52.20;;;;;;5035110;28;1981;-70
2023/05/22 13:07:21;;;;;;;;;;;20.20;49.50;;;;;;5038328;28;816;-70
2023/05/22 13:09:46;;;;;;;;;;;20.20;49.90;;;;;;5036350;28;2089;-70
2023/05/22 13:12:12;;;;;;;;;;;20.30;51.10;;;;;;5037745;28;1415;-70
2023/05/22 13:14:39;;;;;;;;;;;20.30;50.00;;;;;;5036392;28;1968;-70
2023/05/22 13:17:05;;;;;;;;;;;20.30;50.10;;;;;;5039913;28;1290;-70
2023/05/22 13:19:31;;;;;;;;;;;20.40;50.20;;;;;;5036082;28;1868;-70
2023/05/22 13:21:56;;;;;;;;;;;20.40;50.50;;;;;;5036973;28;1385;-70
2023/05/22 13:24:21;;;;;;;;;;;20.40;49.70;;;;;;5015270;28;1426;-71
2023/05/22 13:26:47;;;;;;;;;;;20.40;49.70;;;;;;5035772;28;1894;-70
2023/05/22 13:29:13;;;;;;;;;;;20.40;51.40;;;;;;5021968;28;811;-70
2023/05/22 13:31:38;;;;;;;;;;;20.50;51.00;;;;;;5021553;28;1359;-70
2023/05/22 13:34:04;;;;;;;;;;;20.40;49.20;;;;;;5036510;28;1334;-70
2023/05/22 13:36:29;;;;;;;;;;;20.50;47.60;;;;;;5038043;28;840;-70
2023/05/22 13:38:55;;;;;;;;;;;20.50;48.40;;;;;;5035388;28;871;-71
2023/05/22 13:41:20;;;;;;;;;;;20.50;47.40;;;;;;5038805;28;1358;-70
2023/05/22 13:43:46;;;;;;;;;;;20.50;48.00;;;;;;5021776;28;907;-70
2023/05/22 13:46:11;;;;;;;;;;;20.60;47.50;;;;;;5022062;28;1898;-70
2023/05/22 13:48:37;;;;;;;;;;;20.60;47.10;;;;;;5034693;28;844;-71
2023/05/22 13:51:02;;;;;;;;;;;20.60;46.60;;;;;;5016521;28;1349;-71
2023/05/22 13:53:28;;;;;;;;;;;20.70;46.80;;;;;;5038428;28;786;-71
2023/05/22 13:55:54;;;;;;;;;;;20.70;46.50;;;;;;5039235;28;835;-70
2023/05/22 13:58:19;;;;;;;;;;;20.80;47.50;;;;;;5041958;28;852;-70
2023/05/22 14:00:45;;;;;;;;;;;20.80;46.80;;;;;;5042223;28;1258;-71
2023/05/22 14:03:15;;;;;;;;;;;20.80;46.90;;;;;;5040292;28;914;-69
2023/05/22 14:05:41;;;;;;;;;;;20.80;47.80;;;;;;5039315;28;1957;-70
2023/05/22 14:08:07;;;;;;;;;;;20.80;47.70;;;;;;5040144;28;974;-70
2023/05/22 14:10:34;;;;;;;;;;;20.80;47.20;;;;;;5037269;28;828;-70
2023/05/22 14:13:00;;;;;;;;;;;20.80;47.00;;;;;;5028048;28;1314;-70
2023/05/22 14:15:25;;;;;;;;;;;20.70;46.80;;;;;;5040911;28;915;-70
2023/05/22 14:17:51;;;;;;;;;;;20.70;46.10;;;;;;5040685;28;946;-70
2023/05/22 14:20:16;;;;;;;;;;;20.70;44.60;;;;;;5039353;28;861;-70
2023/05/22 14:22:42;;;;;;;;;;;20.70;45.70;;;;;;5043404;28;1340;-70
2023/05/22 14:25:07;;;;;;;;;;;20.70;46.30;;;;;;5038889;28;1961;-70
2023/05/22 14:27:33;;;;;;;;;;;20.70;46.90;;;;;;5040824;28;796;-69
2023/05/22 14:29:58;;;;;;;;;;;20.60;45.70;;;;;;5039964;28;946;-70
2023/05/22 14:32:24;;;;;;;;;;;20.60;44.10;;;;;;5037778;28;1269;-70